Time;durP1;ratioP1;P1;durP2;ratioP2;P2;SDS_P1;SDS_P2;PMS_P1;PMS_P2;Temp;Humidity;BMP_temperature;BMP_pressure;BME280_temperature;BME280_humidity;BME280_pressure;Samples;Min_cycle;Max_cycle;Signal;HPM_P1;HPM_P2
2022/03/03 00:00:10;;;;;;;;;73.67;57.33;;;;;10.99;52.63;101125.13;5055288;28;45419;-52
2022/03/03 00:02:36;;;;;;;;;75.67;58.67;;;;;10.99;52.86;101130.63;5055232;28;45337;-58
2022/03/03 00:05:02;;;;;;;;;72.00;57.00;;;;;10.98;52.33;101124.28;5055479;28;45491;-54
2022/03/03 00:07:28;;;;;;;;;75.00;57.67;;;;;10.97;53.09;101119.88;5054127;28;45406;-53
2022/03/03 00:09:53;;;;;;;;;76.33;58.33;;;;;10.96;53.28;101120.91;5055073;28;45323;-56
2022/03/03 00:12:19;;;;;;;;;73.00;56.67;;;;;10.87;52.97;101104.81;5088007;27;45445;-55
2022/03/03 00:14:45;;;;;;;;;76.00;57.67;;;;;10.75;53.13;101082.56;5055245;28;45576;-55
2022/03/03 00:17:11;;;;;;;;;75.67;58.67;;;;;10.88;53.01;101110.09;5055139;28;45329;-57
2022/03/03 00:19:37;;;;;;;;;74.33;56.00;;;;;10.84;53.89;101104.16;5054969;28;45459;-56
2022/03/03 00:22:03;;;;;;;;;74.33;58.00;;;;;10.78;53.30;101096.75;5055113;28;45305;-57
2022/03/03 00:24:28;;;;;;;;;80.00;60.00;;;;;10.75;53.70;101096.31;5054561;28;45418;-56
2022/03/03 00:26:54;;;;;;;;;73.33;57.00;;;;;10.57;53.01;101079.34;5053411;28;45350;-55
2022/03/03 00:29:19;;;;;;;;;78.67;60.00;;;;;10.03;53.33;100995.88;5053797;28;45473;-56
2022/03/03 00:31:45;;;;;;;;;75.00;57.00;;;;;10.74;54.43;101113.84;5054806;28;45349;-56
2022/03/03 00:34:10;;;;;;;;;74.33;58.00;;;;;10.75;54.32;101107.28;5055222;28;45274;-54
2022/03/03 00:36:36;;;;;;;;;76.33;55.33;;;;;10.77;53.93;101113.44;5054745;28;45936;-55
2022/03/03 00:39:02;;;;;;;;;82.33;60.67;;;;;10.80;53.07;101110.28;5053676;28;45348;-55
2022/03/03 00:41:28;;;;;;;;;73.50;55.75;;;;;10.79;53.88;101119.56;5054563;28;45361;-54
2022/03/03 00:43:53;;;;;;;;;73.75;57.50;;;;;10.81;53.91;101115.56;5053686;28;45414;-54
2022/03/03 00:46:19;;;;;;;;;73.67;58.67;;;;;10.60;53.60;101077.22;5054286;28;45937;-57
2022/03/03 00:48:44;;;;;;;;;75.67;59.00;;;;;10.82;53.31;101121.88;5036833;28;45347;-54
2022/03/03 00:51:10;;;;;;;;;74.33;57.67;;;;;10.78;54.35;101126.13;5054604;28;45350;-55
2022/03/03 00:53:38;;;;;;;;;75.00;57.00;;;;;10.75;54.22;101121.00;5054880;28;45495;-54
2022/03/03 00:56:04;;;;;;;;;75.00;58.33;;;;;10.39;53.41;101063.38;5055100;28;45436;-56
2022/03/03 00:58:30;;;;;;;;;75.33;58.33;;;;;10.73;54.01;101123.97;5058099;28;45619;-54
2022/03/03 01:00:56;;;;;;;;;75.00;58.00;;;;;10.76;53.96;101128.19;5057003;28;45490;-56
2022/03/03 01:03:21;;;;;;;;;77.67;60.33;;;;;10.77;54.51;101124.44;5058378;28;45825;-57
2022/03/03 01:05:47;;;;;;;;;79.33;60.00;;;;;10.75;53.95;101126.50;5056733;28;45428;-57
2022/03/03 01:08:13;;;;;;;;;76.00;59.00;;;;;10.73;53.81;101121.22;5056811;28;45463;-55
2022/03/03 01:10:38;;;;;;;;;72.25;55.00;;;;;10.69;54.37;101115.28;5058181;28;45321;-56
2022/03/03 01:13:04;;;;;;;;;76.33;57.67;;;;;10.75;54.54;101123.75;5058071;28;45408;-56
2022/03/03 01:15:29;;;;;;;;;79.00;60.00;;;;;10.75;53.77;101119.13;5056581;28;46219;-52
2022/03/03 01:17:55;;;;;;;;;77.33;59.00;;;;;10.75;53.97;101121.00;5058094;28;45293;-57
2022/03/03 01:20:20;;;;;;;;;73.75;56.75;;;;;10.58;54.02;101092.00;5058074;28;45445;-57
2022/03/03 01:22:46;;;;;;;;;67.33;54.33;;;;;10.55;53.95;101084.19;5057913;28;45313;-56
2022/03/03 01:25:11;;;;;;;;;69.00;57.00;;;;;10.80;54.07;101118.50;5026702;28;46262;-52
2022/03/03 01:27:38;;;;;;;;;75.50;57.75;;;;;10.81;54.04;101112.81;5057425;28;45439;-56
2022/03/03 01:30:05;;;;;;;;;72.00;57.00;;;;;10.82;54.34;101111.78;5056238;28;45464;-56
2022/03/03 01:32:30;;;;;;;;;72.50;57.75;;;;;10.85;53.86;101114.09;5057707;28;45432;-55
2022/03/03 01:34:56;;;;;;;;;68.33;54.33;;;;;10.88;54.72;101109.25;5057610;28;46559;-56
2022/03/03 01:37:21;;;;;;;;;70.25;54.75;;;;;10.76;54.53;101085.13;5057346;28;45297;-59
2022/03/03 01:39:47;;;;;;;;;69.75;52.50;;;;;10.88;54.10;101101.84;5057792;28;45349;-61
2022/03/03 01:42:14;;;;;;;;;69.50;52.50;;;;;10.89;54.49;101102.72;5057828;28;45600;-54
2022/03/03 01:44:46;;;;;;;;;72.50;55.00;;;;;10.86;54.10;101098.47;5057294;28;46714;-52
2022/03/03 01:47:21;;;;;;;;;67.00;53.00;;;;;10.88;54.92;101095.53;5056471;28;45456;-55
2022/03/03 01:49:47;;;;;;;;;70.50;57.00;;;;;10.78;54.73;101085.75;5057330;28;45299;-53
2022/03/03 01:52:13;;;;;;;;;68.25;52.50;;;;;10.89;54.76;101099.97;5056168;28;45707;-55
2022/03/03 01:54:38;;;;;;;;;67.67;54.67;;;;;10.91;53.93;101093.22;5057018;28;46860;-53
2022/03/03 01:57:07;;;;;;;;;72.00;53.75;;;;;10.85;54.73;101081.13;5057011;28;45337;-57
2022/03/03 01:59:33;;;;;;;;;71.00;55.00;;;;;10.90;54.22;101091.53;5056237;28;45318;-55
2022/03/03 02:01:59;;;;;;;;;65.75;52.25;;;;;10.89;54.95;101084.31;5057530;28;45411;-54
2022/03/03 02:04:25;;;;;;;;;66.75;52.25;;;;;10.89;54.70;101094.47;5055983;28;45626;-55
2022/03/03 02:06:50;;;;;;;;;65.00;51.50;;;;;10.89;54.95;101089.81;5037629;28;45368;-57
2022/03/03 02:09:17;;;;;;;;;68.00;53.25;;;;;10.63;55.48;101054.88;5056136;28;45342;-58
2022/03/03 02:11:44;;;;;;;;;68.00;54.33;;;;;10.81;55.65;101096.34;5057342;28;45503;-56
2022/03/03 02:14:10;;;;;;;;;68.00;51.25;;;;;10.83;55.96;101090.63;5055638;28;45280;-59
2022/03/03 02:16:35;;;;;;;;;66.75;52.50;;;;;10.82;55.28;101094.44;5056880;28;45305;-52
2022/03/03 02:19:01;;;;;;;;;64.00;51.25;;;;;10.83;55.55;101091.50;5057232;28;45835;-56
2022/03/03 02:21:26;;;;;;;;;63.00;51.50;;;;;10.87;56.16;101088.34;5056959;27;45544;-56
2022/03/03 02:23:52;;;;;;;;;64.25;50.00;;;;;10.89;56.40;101089.81;5057022;28;45782;-56
2022/03/03 02:26:21;;;;;;;;;62.00;50.25;;;;;10.85;56.08;101085.81;5055372;28;45422;-56
2022/03/03 02:28:47;;;;;;;;;61.50;49.75;;;;;10.89;56.75;101081.56;5056709;28;45435;-56
2022/03/03 02:31:13;;;;;;;;;61.75;49.00;;;;;10.93;56.61;101079.25;5031254;28;46064;-56
2022/03/03 02:33:38;;;;;;;;;34.25;27.25;;;;;10.90;56.44;101080.53;5055322;28;46646;-55
2022/03/03 02:36:21;;;;;;;;;65.75;51.25;;;;;10.88;56.89;101077.13;5056766;28;45437;-57
2022/03/03 02:38:48;;;;;;;;;61.00;47.50;;;;;10.94;56.55;101083.72;5055673;28;45324;-54
2022/03/03 02:41:13;;;;;;;;;58.50;49.00;;;;;10.94;57.00;101067.25;5056692;28;45374;-55
2022/03/03 02:43:39;;;;;;;;;62.00;48.75;;;;;11.02;56.90;101077.19;5047172;28;47095;-57
2022/03/03 02:46:07;;;;;;;;;57.50;48.00;;;;;10.54;56.74;100991.94;5036279;28;45273;-57
2022/03/03 02:48:33;;;;;;;;;57.25;48.00;;;;;11.05;57.29;101069.38;5036611;28;45457;-57
2022/03/03 02:50:58;;;;;;;;;65.50;49.50;;;;;11.08;56.96;101074.47;5051913;28;45383;-59
2022/03/03 02:53:24;;;;;;;;;67.50;51.25;;;;;11.08;57.10;101076.34;5056161;28;45993;-58
2022/03/03 02:55:49;;;;;;;;;60.00;48.00;;;;;11.02;57.28;101067.06;5056668;28;45354;-58
2022/03/03 02:58:15;;;;;;;;;63.00;47.25;;;;;11.06;57.05;101067.47;5056412;28;45411;-58
2022/03/03 03:00:43;;;;;;;;;61.00;47.50;;;;;11.08;57.29;101059.88;5057369;28;45366;-56
2022/03/03 03:03:12;;;;;;;;;61.75;47.00;;;;;11.07;58.01;101064.53;5056374;28;45305;-59
2022/03/03 03:05:37;;;;;;;;;58.25;47.00;;;;;11.01;57.89;101054.38;5056179;28;45581;-58
2022/03/03 03:08:03;;;;;;;;;59.75;45.50;;;;;11.04;58.36;101055.88;5055394;28;45469;-59
2022/03/03 03:10:29;;;;;;;;;59.25;47.25;;;;;11.05;58.24;101052.88;5056384;28;45495;-57
2022/03/03 03:12:55;;;;;;;;;54.75;46.00;;;;;11.07;58.02;101048.06;5056061;28;45392;-57
2022/03/03 03:15:20;;;;;;;;;62.50;48.50;;;;;11.10;57.92;101046.78;5055308;28;45403;-58
2022/03/03 03:17:46;;;;;;;;;55.75;44.75;;;;;11.11;57.69;101043.00;5054782;28;45401;-56
2022/03/03 03:20:12;;;;;;;;;53.50;45.50;;;;;11.11;57.95;101043.81;5056239;28;45384;-59
2022/03/03 03:22:37;;;;;;;;;56.50;45.25;;;;;11.05;57.19;101027.34;5054538;28;45398;-58
2022/03/03 03:25:04;;;;;;;;;61.25;50.00;;;;;11.11;57.05;101032.84;5056475;28;45365;-57
2022/03/03 03:27:30;;;;;;;;;61.00;50.00;;;;;11.14;57.39;101036.25;5055952;28;45422;-55
2022/03/03 03:29:56;;;;;;;;;64.25;51.25;;;;;11.10;57.29;101036.63;5055261;28;45279;-57
2022/03/03 03:32:21;;;;;;;;;57.50;47.25;;;;;11.06;57.69;101035.34;5055807;28;45367;-54
2022/03/03 03:34:47;;;;;;;;;56.75;46.00;;;;;11.05;57.94;101027.34;5075083;27;45398;-57
2022/03/03 03:37:12;;;;;;;;;58.50;48.25;;;;;11.02;58.02;101031.34;5030823;28;45454;-58
2022/03/03 03:39:38;;;;;;;;;58.00;45.50;;;;;11.00;59.00;101027.97;5035875;28;45489;-58
2022/03/03 03:42:04;;;;;;;;;55.50;45.00;;;;;10.98;58.74;101030.91;5035603;28;45861;-58
2022/03/03 03:44:29;;;;;;;;;54.50;41.50;;;;;10.96;58.58;101019.31;5034547;28;45340;-56
2022/03/03 03:46:55;;;;;;;;;54.25;43.25;;;;;10.97;59.62;101023.72;5035515;28;45321;-55
2022/03/03 03:49:20;;;;;;;;;49.25;42.00;;;;;10.86;59.64;100999.63;5036048;28;45363;-57
2022/03/03 03:51:46;;;;;;;;;54.75;45.00;;;;;11.02;59.66;101017.63;5053803;28;45501;-57
2022/03/03 03:54:11;;;;;;;;;59.00;43.25;;;;;10.96;58.73;101005.56;5055813;28;45379;-57
2022/03/03 03:56:37;;;;;;;;;47.50;41.50;;;;;10.88;59.11;100989.25;5054443;28;45429;-56
2022/03/03 03:59:02;;;;;;;;;53.00;41.50;;;;;11.00;59.40;101000.50;5088375;27;45447;-56
2022/03/03 04:01:30;;;;;;;;;54.75;45.75;;;;;11.03;59.38;101008.31;5055402;28;45420;-55
2022/03/03 04:03:56;;;;;;;;;60.40;45.60;;;;;11.03;59.03;101002.81;5088175;27;45388;-57
2022/03/03 04:06:22;;;;;;;;;54.75;45.00;;;;;11.04;60.15;101004.50;5055470;28;45324;-53
2022/03/03 04:08:47;;;;;;;;;56.00;45.75;;;;;10.97;59.55;100998.16;5055922;28;45487;-54
2022/03/03 04:11:13;;;;;;;;;49.25;41.00;;;;;10.96;59.59;100999.22;5055742;28;45507;-58
2022/03/03 04:13:38;;;;;;;;;56.25;43.75;;;;;10.89;60.28;101001.09;5055464;28;45499;-57
2022/03/03 04:16:04;;;;;;;;;55.75;45.75;;;;;10.87;60.92;100998.56;5055683;28;45318;-56
2022/03/03 04:18:29;;;;;;;;;55.25;43.00;;;;;10.83;61.55;100995.38;5055376;28;45382;-55
2022/03/03 04:20:55;;;;;;;;;53.50;41.25;;;;;10.84;61.25;100999.00;5055302;28;45436;-56
2022/03/03 04:23:20;;;;;;;;;56.75;42.75;;;;;10.82;61.55;100988.22;5053896;28;45587;-53
2022/03/03 04:25:46;;;;;;;;;45.25;38.50;;;;;10.81;61.65;100992.00;5055385;28;45423;-55
2022/03/03 04:28:11;;;;;;;;;56.50;43.75;;;;;10.84;61.89;100988.00;5055405;28;45483;-59
2022/03/03 04:30:37;;;;;;;;;53.00;38.75;;;;;10.83;61.68;100981.66;5056219;28;46336;-58
2022/03/03 04:33:02;;;;;;;;;53.75;40.75;;;;;10.64;62.03;100944.88;5057594;28;45260;-54
2022/03/03 04:35:30;;;;;;;;;48.25;39.25;;;;;10.84;61.97;100979.78;5059326;28;45779;-58
2022/03/03 04:37:56;;;;;;;;;51.20;42.80;;;;;10.82;62.30;100979.97;5058814;28;45367;-55
2022/03/03 04:40:22;;;;;;;;;55.50;43.75;;;;;10.83;61.38;100972.56;5058992;28;45625;-56
2022/03/03 04:42:47;;;;;;;;;54.00;41.75;;;;;10.79;61.84;100974.06;5040383;28;45374;-55
2022/03/03 04:45:13;;;;;;;;;51.50;41.50;;;;;10.78;62.14;100972.38;5037097;28;45377;-56
2022/03/03 04:47:38;;;;;;;;;54.75;42.75;;;;;10.74;62.90;100968.31;5020571;28;45907;-57
2022/03/03 04:50:05;;;;;;;;;47.00;39.75;;;;;10.59;62.30;100950.13;5058195;28;45570;-56
2022/03/03 04:52:31;;;;;;;;;56.00;42.80;;;;;10.75;62.22;100968.13;5057240;28;45455;-57
2022/03/03 04:54:56;;;;;;;;;49.50;38.50;;;;;10.77;62.54;100963.25;5058128;28;45407;-58
2022/03/03 04:57:22;;;;;;;;;54.25;44.00;;;;;10.79;62.33;100952.91;5057247;28;45421;-57
2022/03/03 04:59:47;;;;;;;;;48.25;42.00;;;;;10.77;62.68;100957.78;5058053;28;46022;-57
2022/03/03 05:02:13;;;;;;;;;54.25;44.50;;;;;10.67;63.57;100944.44;5058009;28;45493;-57
2022/03/03 05:04:38;;;;;;;;;53.25;41.00;;;;;10.66;63.51;100942.75;5057334;28;45732;-55
2022/03/03 05:07:04;;;;;;;;;50.50;42.00;;;;;10.35;63.26;100891.16;5056801;28;45677;-57
2022/03/03 05:09:29;;;;;;;;;41.75;35.25;;;;;10.50;63.10;100921.16;5057922;28;46264;-59
2022/03/03 05:11:57;;;;;;;;;53.75;43.00;;;;;10.68;62.67;100946.13;5056769;28;45382;-56
2022/03/03 05:14:23;;;;;;;;;54.00;42.40;;;;;10.15;62.90;100862.59;5058122;28;45528;-58
2022/03/03 05:16:48;;;;;;;;;44.25;38.00;;;;;10.69;63.70;100961.56;5058177;28;45878;-56
2022/03/03 05:19:14;;;;;;;;;54.25;43.00;;;;;10.71;64.49;100955.84;5057690;28;46427;-57
2022/03/03 05:21:39;;;;;;;;;47.50;39.75;;;;;10.62;63.97;100946.13;5058167;28;45407;-56
2022/03/03 05:24:05;;;;;;;;;53.25;42.00;;;;;10.71;63.92;100953.97;5056507;28;45925;-57
2022/03/03 05:26:30;;;;;;;;;54.50;43.25;;;;;10.71;64.33;100947.63;5058252;28;45387;-56
2022/03/03 05:28:56;;;;;;;;;50.00;42.00;;;;;10.67;65.29;100947.19;5090109;27;45713;-58
2022/03/03 05:31:21;;;;;;;;;51.75;41.25;;;;;10.61;64.35;100950.78;5056393;28;45462;-58
2022/03/03 05:33:47;;;;;;;;;47.25;40.00;;;;;10.60;64.96;100937.25;5039724;28;45401;-55
2022/03/03 05:36:13;;;;;;;;;50.25;42.00;;;;;10.52;65.22;100927.31;5056765;28;45401;-54
2022/03/03 05:38:40;;;;;;;;;53.00;42.75;;;;;10.66;64.94;100948.25;5057663;28;45313;-58
2022/03/03 05:41:05;;;;;;;;;50.00;43.60;;;;;10.66;65.61;100951.00;5056896;28;45314;-55
2022/03/03 05:43:31;;;;;;;;;49.50;41.25;;;;;10.54;65.12;100938.94;5056744;28;45340;-58
2022/03/03 05:45:57;;;;;;;;;51.25;42.75;;;;;10.70;65.32;100963.25;5057784;28;45491;-59
2022/03/03 05:48:23;;;;;;;;;52.00;41.00;;;;;10.71;64.57;100959.47;5055888;28;45347;-58
2022/03/03 05:50:48;;;;;;;;;54.00;41.25;;;;;10.77;64.45;100962.44;5057423;28;45421;-58
2022/03/03 05:53:14;;;;;;;;;47.50;39.00;;;;;10.79;64.42;100958.41;5057255;28;45380;-57
2022/03/03 05:55:46;;;;;;;;;53.50;43.00;;;;;10.77;64.80;100966.00;5040034;28;45335;-56
2022/03/03 05:58:15;;;;;;;;;49.80;41.80;;;;;10.77;64.67;100959.69;5036775;28;46191;-57
2022/03/03 06:00:43;;;;;;;;;48.60;42.00;;;;;10.79;64.27;100965.81;5056317;28;45447;-54
2022/03/03 06:03:08;;;;;;;;;52.40;41.40;;;;;10.79;64.92;100961.16;5039427;28;45342;-58
2022/03/03 06:05:34;;;;;;;;;52.75;40.00;;;;;10.73;65.56;100956.50;5056616;28;45419;-50
2022/03/03 06:08:04;;;;;;;;;45.00;39.00;;;;;10.46;66.18;100928.97;5039057;28;46454;-52
2022/03/03 06:10:34;;;;;;;;;54.80;43.20;;;;;10.66;65.68;100948.25;5001578;28;45965;-58
2022/03/03 06:13:11;;;;;;;;;50.20;41.20;;;;;10.65;66.03;100945.72;5057155;28;45330;-55
2022/03/03 06:15:39;;;;;;;;;54.50;41.50;;;;;10.68;65.61;100954.38;5057668;28;45318;-59
2022/03/03 06:18:05;;;;;;;;;50.75;39.25;;;;;10.57;66.07;100950.34;5057277;28;45904;-58
2022/03/03 06:20:31;;;;;;;;;51.25;41.50;;;;;10.62;66.58;100952.44;5039393;28;45396;-58
2022/03/03 06:22:57;;;;;;;;;50.40;41.60;;;;;10.68;65.40;100957.13;5057089;28;45480;-57
2022/03/03 06:25:22;;;;;;;;;52.25;41.00;;;;;10.48;65.79;100924.16;5073064;28;45535;-59
2022/03/03 06:27:48;;;;;;;;;48.00;39.75;;;;;10.60;66.19;100951.81;5089568;27;45583;-58
2022/03/03 06:30:13;;;;;;;;;46.00;36.00;;;;;10.63;65.44;100947.81;5056997;28;45420;-55
2022/03/03 06:32:38;;;;;;;;;54.00;43.50;;;;;10.45;66.17;100935.53;5039216;28;45869;-54
2022/03/03 06:35:04;;;;;;;;;56.50;44.25;;;;;10.61;67.12;100961.75;5057211;28;45456;-57
2022/03/03 06:37:30;;;;;;;;;55.25;42.00;;;;;10.61;66.52;100969.16;5089499;27;46593;-57
2022/03/03 06:39:55;;;;;;;;;53.00;40.25;;;;;10.63;66.54;100970.63;5056413;28;45381;-58
2022/03/03 06:42:21;;;;;;;;;55.25;42.00;;;;;10.65;66.78;100967.66;5056986;28;45402;-55
2022/03/03 06:44:46;;;;;;;;;52.75;42.25;;;;;10.63;66.78;100973.38;5056955;28;45596;-53
2022/03/03 06:47:12;;;;;;;;;48.25;39.50;;;;;10.58;66.28;100967.66;5056643;28;46148;-55
2022/03/03 06:49:37;;;;;;;;;49.75;39.50;;;;;10.63;66.17;100973.38;5056868;28;45305;-55
2022/03/03 06:52:03;;;;;;;;;54.25;43.25;;;;;10.51;67.11;100950.34;5056997;28;45565;-53
2022/03/03 06:54:29;;;;;;;;;55.25;43.75;;;;;10.62;66.32;100973.59;5054433;28;45545;-58
2022/03/03 06:56:56;;;;;;;;;58.00;46.50;;;;;10.60;66.53;100970.19;5054751;28;47067;-58
2022/03/03 06:59:33;;;;;;;;;56.80;42.40;;;;;10.44;67.33;100947.56;5056503;28;45893;-57
2022/03/03 07:02:00;;;;;;;;;56.00;43.60;;;;;10.61;66.62;100982.88;5048159;28;45384;-51
2022/03/03 07:04:26;;;;;;;;;52.00;39.60;;;;;10.63;66.62;100981.63;5051385;28;45408;-53
2022/03/03 07:06:52;;;;;;;;;52.25;43.00;;;;;10.64;67.15;100982.44;5053120;28;45472;-53
2022/03/03 07:09:19;;;;;;;;;60.75;46.75;;;;;10.62;67.31;100982.66;5054865;28;45361;-57
2022/03/03 07:11:44;;;;;;;;;53.20;42.00;;;;;10.43;67.60;100954.97;5054903;28;45445;-59
2022/03/03 07:14:10;;;;;;;;;57.75;43.25;;;;;10.63;67.32;100973.38;5056283;28;45301;-61
2022/03/03 07:16:41;;;;;;;;;50.25;41.00;;;;;10.63;66.73;100965.16;5055781;28;45981;-55
2022/03/03 07:19:39;;;;;;;;;56.60;42.20;;;;;10.40;67.72;100925.13;5055822;28;45341;-57
2022/03/03 07:22:33;;;;;;;;;59.60;45.60;;;;;10.58;66.27;100963.00;5054813;28;45375;-59
2022/03/03 07:25:14;;;;;;;;;51.40;39.60;;;;;10.49;67.37;100935.94;5054961;28;45437;-57
2022/03/03 07:27:44;;;;;;;;;55.60;44.60;;;;;10.53;66.73;100948.22;5055900;28;45365;-58
2022/03/03 07:30:14;;;;;;;;;55.00;44.20;;;;;10.70;67.26;100971.50;5055700;28;45330;-53
2022/03/03 07:32:47;;;;;;;;;55.00;43.00;;;;;10.66;67.62;100969.34;5055954;28;45389;-54
2022/03/03 07:35:14;;;;;;;;;59.25;42.25;;;;;10.60;67.06;100954.56;5055686;28;45475;-58
2022/03/03 07:37:59;;;;;;;;;47.75;41.50;;;;;10.76;67.40;100974.44;5055841;28;46315;-56
2022/03/03 07:40:28;;;;;;;;;48.80;41.00;;;;;10.75;67.75;100983.75;5054167;28;45323;-55
2022/03/03 07:42:54;;;;;;;;;58.20;45.00;;;;;10.77;66.88;100977.00;5055549;28;45383;-57
2022/03/03 07:45:19;;;;;;;;;56.00;42.75;;;;;10.74;66.82;100971.94;5054535;28;45548;-56
2022/03/03 07:47:47;;;;;;;;;55.50;42.25;;;;;10.73;67.79;100974.88;5055204;28;45507;-51
2022/03/03 07:50:12;;;;;;;;;50.40;42.00;;;;;10.75;67.97;100978.25;5033973;28;45830;-57
2022/03/03 07:52:38;;;;;;;;;46.50;39.25;;;;;10.78;67.81;100975.09;5035454;28;45442;-55
2022/03/03 07:55:04;;;;;;;;;57.00;45.00;;;;;10.81;67.63;100983.78;5035518;28;45349;-57
2022/03/03 07:57:35;;;;;;;;;54.00;41.75;;;;;10.85;67.02;100979.53;5035266;28;45332;-59
2022/03/03 08:00:09;;;;;;;;;64.80;50.00;;;;;10.87;67.26;100975.75;5033762;28;45364;-58
2022/03/03 08:02:34;;;;;;;;;55.00;43.80;;;;;10.91;67.54;100975.13;5034072;28;45429;-56
2022/03/03 08:05:01;;;;;;;;;56.25;43.00;;;;;10.92;66.99;100978.72;5050073;28;45554;-56
2022/03/03 08:07:27;;;;;;;;;51.60;41.20;;;;;10.97;67.55;100973.44;5033403;28;48797;-55
2022/03/03 08:09:57;;;;;;;;;53.75;42.25;;;;;11.04;66.37;100981.72;5005084;28;46570;-56
2022/03/03 08:12:23;;;;;;;;;54.80;44.60;;;;;11.00;66.60;100970.28;5065595;28;45383;-58
2022/03/03 08:14:49;;;;;;;;;50.40;39.80;;;;;11.08;66.12;100977.47;5034122;28;45660;-57
2022/03/03 08:17:15;;;;;;;;;58.00;45.00;;;;;11.13;66.53;100980.44;5053359;28;46006;-57
2022/03/03 08:19:43;;;;;;;;;55.75;43.00;;;;;11.16;67.03;100976.44;5087362;27;45393;-56
2022/03/03 08:22:09;;;;;;;;;59.40;45.20;;;;;11.08;66.87;100960.97;5055148;28;45409;-58
2022/03/03 08:24:35;;;;;;;;;49.50;39.25;;;;;11.11;66.95;100969.66;5053940;28;45375;-59
2022/03/03 08:27:01;;;;;;;;;51.50;42.50;;;;;11.16;66.24;100966.25;5055109;28;46272;-59
2022/03/03 08:29:27;;;;;;;;;56.00;42.25;;;;;11.22;66.52;100970.09;5055029;28;45287;-60
2022/03/03 08:31:57;;;;;;;;;55.00;45.50;;;;;11.25;65.79;100966.91;5054689;28;45399;-58
2022/03/03 08:34:36;;;;;;;;;59.00;44.25;;;;;11.25;66.36;100961.41;5053911;28;45649;-58
2022/03/03 08:37:03;;;;;;;;;50.20;39.80;;;;;11.25;66.76;100967.75;5055049;28;46720;-57
2022/03/03 08:39:29;;;;;;;;;54.20;44.80;;;;;11.25;66.72;100958.66;5054876;28;45448;-53
2022/03/03 08:41:59;;;;;;;;;48.75;41.25;;;;;11.37;66.52;100964.38;5037046;28;45417;-57
2022/03/03 08:44:32;;;;;;;;;60.00;48.25;;;;;11.26;66.39;100932.88;5054735;28;45521;-53
2022/03/03 08:46:57;;;;;;;;;67.25;53.75;;;;;11.24;66.16;100932.25;5053657;28;45872;-58
2022/03/03 08:49:23;;;;;;;;;62.75;48.75;;;;;11.47;65.64;100975.78;5014209;27;45833;-59
2022/03/03 08:51:49;;;;;;;;;60.00;46.25;;;;;11.42;65.90;100966.50;5068509;28;45362;-58
2022/03/03 08:54:14;;;;;;;;;59.00;45.50;;;;;11.48;65.72;100979.41;5036734;28;45300;-58
2022/03/03 08:56:40;;;;;;;;;52.25;42.50;;;;;11.48;65.65;100980.22;5054978;28;46568;-58
2022/03/03 08:59:05;;;;;;;;;59.25;47.50;;;;;11.21;66.43;100933.53;5070450;28;45384;-57
2022/03/03 09:01:31;;;;;;;;;57.00;43.25;;;;;11.44;66.33;100980.88;5034803;27;45318;-55
2022/03/03 09:03:58;;;;;;;;;60.75;45.75;;;;;11.47;66.60;100977.72;5053426;28;45553;-57
2022/03/03 09:06:24;;;;;;;;;63.60;46.40;;;;;11.52;66.44;100986.13;5054196;28;46270;-58
2022/03/03 09:08:50;;;;;;;;;52.00;41.20;;;;;11.57;66.10;100991.03;5070133;28;45550;-58
2022/03/03 09:11:18;;;;;;;;;45.50;40.00;;;;;11.59;65.92;100984.22;5050682;28;45441;-60
2022/03/03 09:13:44;;;;;;;;;61.00;42.50;;;;;11.43;66.09;100957.19;5036241;28;45848;-58
2022/03/03 09:16:10;;;;;;;;;54.75;43.25;;;;;11.61;65.82;100975.78;5050143;28;45653;-57
2022/03/03 09:18:36;;;;;;;;;55.40;44.80;;;;;11.68;66.65;100979.34;5052986;27;45362;-57
2022/03/03 09:21:01;;;;;;;;;57.00;44.00;;;;;11.65;65.78;100980.63;5056229;28;45351;-58
2022/03/03 09:23:27;;;;;;;;;58.00;45.25;;;;;11.63;66.26;100979.19;5056112;28;45578;-52
2022/03/03 09:25:53;;;;;;;;;58.75;45.50;;;;;11.66;65.95;100979.59;5055550;28;45411;-56
2022/03/03 09:28:19;;;;;;;;;57.50;46.25;;;;;11.74;66.11;100980.44;5055907;28;45467;-55
2022/03/03 09:30:44;;;;;;;;;56.25;43.75;;;;;11.78;65.58;100984.41;5057156;28;45405;-57
2022/03/03 09:33:10;;;;;;;;;51.25;42.25;;;;;11.77;65.67;100980.84;5055935;28;45623;-55
2022/03/03 09:35:35;;;;;;;;;59.00;45.75;;;;;11.82;65.78;100988.44;5055730;28;45520;-54
2022/03/03 09:38:01;;;;;;;;;50.00;41.50;;;;;11.82;65.58;100982.09;5089582;27;45538;-57
2022/03/03 09:40:27;;;;;;;;;53.25;42.50;;;;;11.37;65.61;100903.94;5054249;28;45473;-55
2022/03/03 09:43:06;;;;;;;;;58.25;44.00;;;;;11.83;65.38;100970.88;5057102;28;45570;-56
2022/03/03 09:45:32;;;;;;;;;53.60;42.40;;;;;11.92;65.51;100971.50;5056803;28;46333;-55
2022/03/03 09:48:00;;;;;;;;;55.40;42.20;;;;;11.97;65.20;100979.09;5056272;28;45243;-58
2022/03/03 09:50:26;;;;;;;;;56.00;45.80;;;;;12.05;65.19;100970.63;5054885;28;45581;-56
2022/03/03 09:52:52;;;;;;;;;63.25;47.50;;;;;11.95;64.59;100948.22;5056243;28;45682;-59
2022/03/03 09:55:18;;;;;;;;;58.40;46.40;;;;;12.22;64.43;100979.25;5054964;28;46033;-55
2022/03/03 09:57:50;;;;;;;;;55.50;39.25;;;;;12.27;64.22;100967.63;5055968;28;45252;-59
2022/03/03 10:00:16;;;;;;;;;60.40;47.80;;;;;12.34;64.00;100974.75;5047828;27;45631;-58
2022/03/03 10:02:58;;;;;;;;;56.75;45.00;;;;;12.31;64.01;100977.09;5054966;28;46154;-57
2022/03/03 10:05:31;;;;;;;;;54.00;41.80;;;;;12.19;63.89;100952.19;5055374;28;45595;-58
2022/03/03 10:08:04;;;;;;;;;55.80;44.80;;;;;12.32;64.17;100976.91;5056788;28;45345;-56
2022/03/03 10:10:29;;;;;;;;;56.40;45.40;;;;;12.29;64.21;100988.34;5057330;28;45243;-56
2022/03/03 10:12:56;;;;;;;;;59.50;46.25;;;;;12.07;64.29;100946.53;5057151;28;45538;-56
2022/03/03 10:15:24;;;;;;;;;59.00;46.25;;;;;12.31;64.18;100979.84;5054282;28;45764;-56
2022/03/03 10:17:58;;;;;;;;;62.00;44.80;;;;;12.23;64.44;100969.97;5056323;28;45555;-57
2022/03/03 10:20:24;;;;;;;;;62.00;48.60;;;;;12.31;64.56;100979.84;5055513;28;45464;-59
2022/03/03 10:22:57;;;;;;;;;55.00;43.75;;;;;12.34;64.08;100973.94;5057267;28;45671;-56
2022/03/03 10:25:35;;;;;;;;;58.40;47.20;;;;;12.39;63.92;100974.09;5056273;28;45478;-57
2022/03/03 10:28:22;;;;;;;;;62.60;45.20;;;;;12.43;63.74;100972.63;5054307;28;45507;-56
2022/03/03 10:31:04;;;;;;;;;58.20;45.60;;;;;12.45;63.57;100975.16;5055527;28;45521;-56
2022/03/03 10:33:34;;;;;;;;;56.60;42.80;;;;;12.44;63.44;100968.78;5056668;28;45345;-55
2022/03/03 10:36:02;;;;;;;;;54.00;44.00;;;;;12.39;63.63;100943.00;5056578;28;45901;-54
2022/03/03 10:38:28;;;;;;;;;57.00;42.20;;;;;12.53;62.79;100955.63;5046329;28;47121;-53
2022/03/03 10:40:58;;;;;;;;;51.40;41.00;;;;;12.69;62.55;100964.44;4974753;27;45555;-56
2022/03/03 10:43:24;;;;;;;;;55.60;44.20;;;;;12.66;62.36;100959.38;5036380;28;46006;-57
2022/03/03 10:45:54;;;;;;;;;53.75;43.25;;;;;12.77;62.30;100966.94;5052406;28;45425;-54
2022/03/03 10:48:24;;;;;;;;;51.80;40.40;;;;;12.86;61.93;100962.84;5069403;28;45484;-51
2022/03/03 10:51:00;;;;;;;;;47.80;38.40;;;;;12.97;61.42;100971.47;5054883;28;45425;-50
2022/03/03 10:53:26;;;;;;;;;46.60;37.60;;;;;12.91;61.51;100942.06;5053778;28;45422;-54
2022/03/03 10:56:08;;;;;;;;;53.75;41.75;;;;;13.06;61.48;100961.88;5055137;28;48443;-50
2022/03/03 10:58:53;;;;;;;;;51.40;40.60;;;;;12.90;61.19;100926.59;5055339;28;45327;-54
2022/03/03 11:01:23;;;;;;;;;52.20;42.20;;;;;13.02;61.12;100963.38;5047424;27;45492;-53
2022/03/03 11:03:49;;;;;;;;;51.00;41.20;;;;;13.08;61.43;100959.72;5056992;28;45738;-54
2022/03/03 11:06:22;;;;;;;;;52.80;45.00;;;;;12.90;61.28;100932.94;5046367;28;45691;-50
2022/03/03 11:08:49;;;;;;;;;54.40;41.00;;;;;13.09;61.18;100949.56;5036140;28;45326;-52